createdAt,value
2018-10-18T00:00:07.523Z,71.30
2018-10-18T00:02:35.523Z,74.57
2018-10-18T00:05:03.599Z,69.20
2018-10-18T00:07:31.718Z,71.40
2018-10-18T00:09:59.790Z,72.50
2018-10-18T00:12:27.883Z,68.80
2018-10-18T00:14:55.995Z,72.30
2018-10-18T00:17:29.494Z,68.10
2018-10-18T00:19:57.767Z,66.10
2018-10-18T00:22:25.840Z,74.43
2018-10-18T00:24:53.913Z,67.17
2018-10-18T00:27:21.996Z,66.80
2018-10-18T00:29:50.074Z,68.30
2018-10-18T00:32:18.155Z,68.70
2018-10-18T00:34:46.230Z,63.90
2018-10-18T00:37:14.302Z,66.73
2018-10-18T00:39:42.386Z,65.50
2018-10-18T00:42:10.519Z,63.60
2018-10-18T00:44:38.549Z,64.67
2018-10-18T00:47:06.746Z,65.67
2018-10-18T00:49:34.843Z,67.43
2018-10-18T00:52:02.914Z,68.60
2018-10-18T00:54:31.001Z,71.10
2018-10-18T00:56:59.070Z,65.20
2018-10-18T00:59:27.156Z,65.47
2018-10-18T01:01:55.272Z,64.23
2018-10-18T01:04:23.318Z,61.77
2018-10-18T01:06:51.408Z,65.57
2018-10-18T01:09:19.525Z,64.90
2018-10-18T01:11:47.605Z,61.60
2018-10-18T01:14:15.737Z,61.77
2018-10-18T01:16:43.769Z,64.00
2018-10-18T01:19:11.854Z,62.17
2018-10-18T01:21:39.926Z,65.50
2018-10-18T01:24:08.058Z,62.43
2018-10-18T01:26:36.082Z,67.87
2018-10-18T01:29:04.167Z,84.50
2018-10-18T01:31:32.252Z,91.80
2018-10-18T01:34:00.333Z,92.10
2018-10-18T01:36:28.410Z,91.27
2018-10-18T01:38:56.486Z,89.60
2018-10-18T01:41:24.570Z,82.80
2018-10-18T01:43:52.654Z,81.87
2018-10-18T01:46:20.735Z,79.97
2018-10-18T01:48:48.820Z,87.20
2018-10-18T01:51:16.890Z,80.00
2018-10-18T01:53:44.990Z,86.83
2018-10-18T01:56:13.121Z,87.30
2018-10-18T01:58:41.176Z,89.67
2018-10-18T02:01:09.258Z,94.20
2018-10-18T02:03:37.344Z,97.23
2018-10-18T02:06:06.209Z,92.97
2018-10-18T02:08:34.211Z,96.63
2018-10-18T02:11:02.286Z,94.30
2018-10-18T02:13:30.412Z,98.90
2018-10-18T02:15:58.539Z,102.63
2018-10-18T02:18:26.622Z,104.87
2018-10-18T02:20:54.658Z,106.40
2018-10-18T02:23:22.753Z,110.13
2018-10-18T02:25:50.834Z,104.87
2018-10-18T02:28:18.921Z,111.80
2018-10-18T02:30:47.007Z,108.90
2018-10-18T02:33:15.094Z,111.57
2018-10-18T02:35:43.202Z,111.70
2018-10-18T02:38:11.298Z,106.67
2018-10-18T02:40:39.394Z,113.03
2018-10-18T02:43:07.491Z,108.77
2018-10-18T02:45:35.852Z,111.37
2018-10-18T02:48:03.999Z,118.80
2018-10-18T02:50:32.059Z,115.30
2018-10-18T02:53:00.184Z,110.87
2018-10-18T02:55:28.342Z,102.40
2018-10-18T02:57:56.431Z,110.50
2018-10-18T03:00:24.509Z,114.33
2018-10-18T03:02:52.589Z,110.57
2018-10-18T03:05:20.675Z,118.27
2018-10-18T03:07:48.758Z,112.73
2018-10-18T03:10:16.847Z,117.83
2018-10-18T03:12:44.941Z,118.97
2018-10-18T03:15:13.034Z,119.67
2018-10-18T03:17:41.128Z,123.53
2018-10-18T03:20:09.206Z,121.80
2018-10-18T03:22:37.298Z,122.10
2018-10-18T03:25:06.502Z,124.63
2018-10-18T03:27:34.579Z,125.73
2018-10-18T03:30:02.862Z,127.90
2018-10-18T03:32:30.759Z,115.37
2018-10-18T03:34:58.850Z,123.43
2018-10-18T03:37:26.930Z,119.40
2018-10-18T03:39:55.026Z,125.90
2018-10-18T03:42:23.107Z,121.17
2018-10-18T03:44:51.211Z,110.90
2018-10-18T03:47:19.307Z,118.07
2018-10-18T03:49:47.396Z,116.73
2018-10-18T03:52:15.474Z,115.53
2018-10-18T03:54:43.578Z,111.50
2018-10-18T03:57:11.662Z,105.57
2018-10-18T03:59:39.778Z,111.80
2018-10-18T04:02:07.846Z,104.60
2018-10-18T04:04:35.934Z,105.27
2018-10-18T04:07:04.031Z,97.97
2018-10-18T04:09:32.118Z,95.60
2018-10-18T04:12:00.234Z,103.17
2018-10-18T04:14:28.308Z,101.90
2018-10-18T04:16:56.381Z,102.37
2018-10-18T04:19:24.459Z,93.80
2018-10-18T04:21:52.580Z,101.77
2018-10-18T04:24:20.635Z,96.33
2018-10-18T04:26:48.722Z,92.93
2018-10-18T04:29:16.807Z,94.70
2018-10-18T04:31:44.887Z,86.97
2018-10-18T04:34:12.988Z,87.23
2018-10-18T04:36:41.112Z,87.13
2018-10-18T04:39:11.149Z,79.33
2018-10-18T04:41:39.275Z,83.60
2018-10-18T04:44:07.504Z,83.47
2018-10-18T04:46:35.582Z,82.33
2018-10-18T04:49:03.663Z,79.10
2018-10-18T04:51:31.742Z,73.90
2018-10-18T04:53:59.821Z,72.67
2018-10-18T04:56:27.954Z,69.73
2018-10-18T04:58:56.242Z,73.17
2018-10-18T05:01:24.506Z,68.10
2018-10-18T05:03:52.422Z,67.87
2018-10-18T05:06:20.518Z,68.53
2018-10-18T05:08:48.597Z,64.20
2018-10-18T05:11:16.698Z,68.60
2018-10-18T05:13:44.771Z,66.53
2018-10-18T05:16:12.858Z,63.60
2018-10-18T05:18:40.946Z,62.77
2018-10-18T05:21:09.030Z,64.13
2018-10-18T05:23:37.128Z,60.83
2018-10-18T05:26:06.066Z,61.07
2018-10-18T05:28:34.175Z,63.33
2018-10-18T05:31:02.299Z,62.37
2018-10-18T05:33:30.329Z,62.20
2018-10-18T05:35:58.422Z,58.17
2018-10-18T05:38:26.491Z,62.97
2018-10-18T05:40:54.578Z,61.87
2018-10-18T05:43:24.403Z,58.87
2018-10-18T05:45:53.811Z,58.67
2018-10-18T05:48:21.894Z,59.70
2018-10-18T05:50:49.997Z,56.73
2018-10-18T05:53:18.224Z,57.80
2018-10-18T05:55:46.406Z,57.73
2018-10-18T05:58:14.487Z,56.83
2018-10-18T06:00:42.569Z,55.40
2018-10-18T06:03:10.647Z,54.60
2018-10-18T06:05:38.746Z,52.87
2018-10-18T06:08:06.830Z,52.17
2018-10-18T06:10:46.343Z,52.57
2018-10-18T06:13:14.490Z,54.17
2018-10-18T06:15:42.506Z,51.90
2018-10-18T06:18:10.585Z,51.10
2018-10-18T06:20:38.657Z,51.17
2018-10-18T06:23:06.828Z,50.90
2018-10-18T06:25:34.854Z,54.27
2018-10-18T06:28:02.939Z,51.27
2018-10-18T06:30:31.023Z,53.37
2018-10-18T06:32:59.165Z,52.40
2018-10-18T06:35:27.187Z,55.23
2018-10-18T06:37:55.270Z,55.47
2018-10-18T06:40:23.354Z,56.37
2018-10-18T06:42:51.447Z,56.37
2018-10-18T06:45:19.926Z,55.50
2018-10-18T06:47:48.356Z,57.00
2018-10-18T06:50:20.474Z,53.93
2018-10-18T06:52:48.578Z,53.63
2018-10-18T06:55:16.763Z,53.57
2018-10-18T06:57:45.114Z,55.23
2018-10-18T07:00:17.084Z,56.50
2018-10-18T07:02:45.406Z,54.30
2018-10-18T07:05:14.480Z,54.90
2018-10-18T07:07:43.142Z,51.20
2018-10-18T07:10:11.272Z,51.30
2018-10-18T07:12:39.815Z,52.83
2018-10-18T07:15:09.078Z,49.03
2018-10-18T07:17:38.264Z,52.73
2018-10-18T07:20:07.062Z,49.97
2018-10-18T07:22:35.558Z,47.13
2018-10-18T07:25:04.283Z,50.10
2018-10-18T07:27:32.315Z,45.57
2018-10-18T07:30:00.436Z,47.60
2018-10-18T07:32:28.469Z,47.10
2018-10-18T07:34:57.161Z,44.17
2018-10-18T07:37:25.255Z,43.30
2018-10-18T07:39:53.325Z,45.57
2018-10-18T07:42:21.404Z,45.07
2018-10-18T07:44:49.512Z,46.43
2018-10-18T07:47:17.581Z,44.60
2018-10-18T07:49:45.646Z,45.20
2018-10-18T07:52:13.742Z,45.53
2018-10-18T07:54:41.830Z,45.77
2018-10-18T07:57:09.915Z,42.90
2018-10-18T07:59:37.989Z,47.40
2018-10-18T08:02:06.066Z,43.03
2018-10-18T08:04:34.143Z,44.17
2018-10-18T08:07:02.252Z,41.67
2018-10-18T08:09:30.310Z,42.47
2018-10-18T08:11:58.404Z,42.40
2018-10-18T08:14:26.481Z,43.03
2018-10-18T08:16:54.602Z,40.53
2018-10-18T08:19:22.638Z,40.23
2018-10-18T08:21:50.738Z,42.40
2018-10-18T08:24:18.811Z,40.40
2018-10-18T08:26:46.887Z,39.33
2018-10-18T08:29:14.983Z,39.60
2018-10-18T08:31:43.075Z,37.87
2018-10-18T08:34:11.203Z,37.00
2018-10-18T08:36:39.266Z,36.77
2018-10-18T08:39:08.557Z,38.10
2018-10-18T08:41:36.658Z,38.00
2018-10-18T08:44:04.854Z,33.43
2018-10-18T08:46:32.807Z,36.40
2018-10-18T08:49:00.923Z,32.97
2018-10-18T08:51:29.226Z,34.50
2018-10-18T08:53:57.314Z,34.40
2018-10-18T08:56:25.394Z,32.93
2018-10-18T08:58:53.475Z,32.20
2018-10-18T09:01:21.550Z,32.10
2018-10-18T09:03:49.635Z,29.57
2018-10-18T09:06:17.738Z,31.87
2018-10-18T09:08:46.130Z,30.47
2018-10-18T09:11:14.248Z,31.93
2018-10-18T09:13:42.326Z,34.30
2018-10-18T09:16:10.492Z,34.50
2018-10-18T09:18:38.614Z,33.00
2018-10-18T09:21:06.693Z,34.30
2018-10-18T09:23:34.799Z,36.00
2018-10-18T09:26:02.854Z,38.00
2018-10-18T09:28:30.938Z,39.43
2018-10-18T09:30:59.045Z,38.10
2018-10-18T09:33:27.102Z,36.73
2018-10-18T09:35:55.187Z,36.53
2018-10-18T09:38:23.317Z,37.40
2018-10-18T09:40:51.398Z,39.00
2018-10-18T09:43:19.540Z,37.53
2018-10-18T09:45:47.748Z,36.43
2018-10-18T09:48:15.930Z,34.70
2018-10-18T09:50:44.019Z,39.00
2018-10-18T09:53:12.130Z,37.70
2018-10-18T09:55:40.315Z,36.27
2018-10-18T09:58:08.355Z,33.60
2018-10-18T10:00:42.048Z,36.53
2018-10-18T10:03:11.920Z,36.17
2018-10-18T10:05:39.998Z,35.07
2018-10-18T10:08:08.082Z,35.80
2018-10-18T10:10:36.444Z,36.40
2018-10-18T10:13:04.587Z,37.53
2018-10-18T10:15:32.647Z,38.37
2018-10-18T10:18:00.730Z,35.80
2018-10-18T10:20:28.858Z,35.50
2018-10-18T10:22:56.954Z,37.70
2018-10-18T10:25:25.282Z,36.23
2018-10-18T10:27:53.751Z,38.20
2018-10-18T10:30:21.921Z,39.30
2018-10-18T10:32:50.520Z,37.97
2018-10-18T10:35:18.798Z,37.63
2018-10-18T10:37:46.820Z,36.90
2018-10-18T10:40:14.995Z,38.93
2018-10-18T10:42:43.047Z,38.30
2018-10-18T10:45:12.149Z,36.30
2018-10-18T10:47:40.197Z,37.60
2018-10-18T10:50:08.766Z,38.50
2018-10-18T10:52:36.943Z,38.73
2018-10-18T10:55:05.882Z,37.30
2018-10-18T10:57:33.958Z,34.97
2018-10-18T11:00:02.173Z,36.57
2018-10-18T11:02:30.215Z,36.80
2018-10-18T11:04:58.289Z,35.90
2018-10-18T11:07:26.373Z,37.83
2018-10-18T11:09:54.459Z,36.60
2018-10-18T11:12:22.574Z,36.00
2018-10-18T11:14:50.669Z,35.67
2018-10-18T11:17:18.815Z,34.80
2018-10-18T11:19:47.063Z,35.37
2018-10-18T11:22:15.142Z,32.83
2018-10-18T11:24:43.244Z,33.47
2018-10-18T11:27:11.326Z,33.00
2018-10-18T11:29:39.398Z,29.73
2018-10-18T11:32:07.522Z,34.00
2018-10-18T11:34:35.702Z,33.00
2018-10-18T11:37:03.719Z,33.30
2018-10-18T11:39:31.842Z,34.70
2018-10-18T11:42:00.009Z,30.53
2018-10-18T11:44:33.561Z,33.00
2018-10-18T11:47:01.670Z,33.40
2018-10-18T11:49:29.799Z,34.43
2018-10-18T11:51:57.995Z,33.53
2018-10-18T11:54:26.082Z,32.20
2018-10-18T11:56:54.186Z,34.90
2018-10-18T11:59:22.314Z,32.70
2018-10-18T12:01:50.434Z,31.60
2018-10-18T12:04:18.560Z,32.57
2018-10-18T12:06:46.670Z,30.87
2018-10-18T12:09:14.801Z,33.67
2018-10-18T12:11:42.926Z,31.93
2018-10-18T12:14:11.109Z,31.53
2018-10-18T12:16:39.184Z,32.30
2018-10-18T12:19:07.410Z,31.60
2018-10-18T12:21:35.434Z,30.47
2018-10-18T12:24:03.546Z,28.53
2018-10-18T12:26:31.678Z,27.40
2018-10-18T12:28:59.845Z,25.07
2018-10-18T12:31:27.926Z,26.27
2018-10-18T12:33:56.042Z,24.77
2018-10-18T12:36:24.225Z,24.07
2018-10-18T12:38:52.358Z,23.77
2018-10-18T12:41:20.677Z,25.10
2018-10-18T12:43:48.619Z,24.70
2018-10-18T12:46:16.746Z,22.13
2018-10-18T12:48:44.955Z,22.67
2018-10-18T12:51:13.039Z,22.30
2018-10-18T12:53:41.158Z,21.37
2018-10-18T12:56:09.357Z,21.77
2018-10-18T12:58:37.439Z,22.33
2018-10-18T13:01:06.055Z,20.57
2018-10-18T13:03:34.202Z,22.30
2018-10-18T13:06:02.402Z,23.23
2018-10-18T13:08:30.462Z,20.50
2018-10-18T13:10:58.670Z,22.10
2018-10-18T13:13:26.810Z,23.77
2018-10-18T13:15:54.943Z,22.70
2018-10-18T13:18:23.099Z,23.03
2018-10-18T13:20:51.238Z,20.37
2018-10-18T13:23:19.366Z,19.07
2018-10-18T13:25:47.502Z,18.77
2018-10-18T13:28:15.615Z,18.80
2018-10-18T13:30:43.758Z,18.97
2018-10-18T13:33:11.882Z,19.67
2018-10-18T13:35:40.014Z,18.80
2018-10-18T13:38:08.231Z,17.20
2018-10-18T13:40:36.281Z,19.53
2018-10-18T13:43:04.515Z,19.07
2018-10-18T13:45:32.650Z,19.10
2018-10-18T13:48:00.846Z,19.30
2018-10-18T13:50:28.915Z,18.60
2018-10-18T13:52:57.038Z,18.37
2018-10-18T13:55:25.207Z,16.83
2018-10-18T13:57:53.301Z,13.77
2018-10-18T14:00:24.254Z,11.53
2018-10-18T14:02:53.243Z,12.17
2018-10-18T14:05:21.513Z,10.50
2018-10-18T14:07:50.653Z,10.67
2018-10-18T14:10:18.847Z,10.27
2018-10-18T14:12:46.974Z,10.77
2018-10-18T14:15:15.125Z,10.33
2018-10-18T14:17:43.294Z,11.00
2018-10-18T14:20:11.553Z,10.77
2018-10-18T14:22:39.974Z,10.23
2018-10-18T14:25:08.446Z,10.30
2018-10-18T14:27:36.573Z,9.90
2018-10-18T14:30:06.088Z,8.80
2018-10-18T14:32:34.199Z,8.47
2018-10-18T14:35:02.336Z,8.70
2018-10-18T14:37:30.439Z,7.30
2018-10-18T14:39:58.545Z,7.40
2018-10-18T14:42:26.682Z,6.73
2018-10-18T14:44:54.910Z,7.53
2018-10-18T14:47:23.689Z,7.17
2018-10-18T14:49:51.944Z,7.00
2018-10-18T14:52:20.099Z,6.27
2018-10-18T14:54:48.179Z,7.30
2018-10-18T14:57:16.770Z,7.00
2018-10-18T14:59:44.920Z,5.67
2018-10-18T15:02:13.402Z,5.40
2018-10-18T15:04:41.547Z,4.80
2018-10-18T15:07:09.559Z,5.87
2018-10-18T15:09:37.930Z,5.60
2018-10-18T15:12:06.624Z,6.20
2018-10-18T15:14:34.729Z,5.93
2018-10-18T15:17:02.900Z,6.70
2018-10-18T15:19:30.974Z,7.03
2018-10-18T15:21:59.088Z,6.40
2018-10-18T15:24:27.256Z,6.50
2018-10-18T15:26:55.458Z,6.00
2018-10-18T15:29:23.629Z,5.70
2018-10-18T15:31:52.725Z,5.77
2018-10-18T15:34:20.798Z,6.20
2018-10-18T15:36:48.918Z,4.77
2018-10-18T15:39:17.184Z,5.33
2018-10-18T15:41:45.164Z,5.30
2018-10-18T15:44:13.285Z,5.20
2018-10-18T15:46:41.387Z,5.10
2018-10-18T15:49:09.494Z,4.80
2018-10-18T15:51:37.821Z,4.30
2018-10-18T15:54:06.499Z,4.40
2018-10-18T15:56:34.787Z,4.80
2018-10-18T15:59:03.025Z,4.70
2018-10-18T16:01:31.037Z,4.77
2018-10-18T16:03:59.152Z,4.30
2018-10-18T16:06:27.329Z,3.60
2018-10-18T16:08:55.394Z,4.03
2018-10-18T16:11:23.718Z,3.70
2018-10-18T16:13:51.713Z,4.20
2018-10-18T16:16:19.783Z,4.13
2018-10-18T16:18:47.898Z,4.07
2018-10-18T16:21:16.028Z,5.87
2018-10-18T16:23:44.168Z,5.53
2018-10-18T16:26:12.431Z,5.50
2018-10-18T16:28:40.441Z,5.80
2018-10-18T16:31:08.594Z,5.60
2018-10-18T16:33:36.833Z,5.90
2018-10-18T16:36:05.125Z,5.20
2018-10-18T16:38:33.266Z,6.80
2018-10-18T16:41:01.501Z,7.50
2018-10-18T16:43:29.514Z,8.30
2018-10-18T16:45:57.678Z,8.47
2018-10-18T16:48:25.834Z,8.30
2018-10-18T16:50:53.926Z,7.47
2018-10-18T16:53:22.055Z,9.40
2018-10-18T16:55:50.242Z,9.30
2018-10-18T16:58:18.445Z,10.20
2018-10-18T17:00:46.534Z,12.10
2018-10-18T17:03:14.764Z,12.17
2018-10-18T17:05:42.887Z,10.53
2018-10-18T17:08:11.049Z,11.60
2018-10-18T17:10:39.408Z,11.83
2018-10-18T17:13:07.486Z,11.57
2018-10-18T17:15:35.646Z,12.13
2018-10-18T17:18:03.818Z,12.47
2018-10-18T17:20:31.994Z,12.80
2018-10-18T17:23:00.091Z,13.10
2018-10-18T17:25:28.359Z,12.80
2018-10-18T17:27:56.581Z,12.03
2018-10-18T17:30:24.723Z,13.83
2018-10-18T17:32:52.934Z,12.70
2018-10-18T17:35:21.150Z,13.60
2018-10-18T17:37:49.430Z,12.93
2018-10-18T17:40:17.762Z,12.30
2018-10-18T17:42:45.769Z,12.70
2018-10-18T17:45:13.902Z,12.83
2018-10-18T17:47:42.646Z,11.50
2018-10-18T17:50:11.111Z,11.67
2018-10-18T17:52:39.195Z,12.63
2018-10-18T17:55:08.108Z,11.27
2018-10-18T17:57:36.681Z,12.60
2018-10-18T18:00:10.476Z,12.83
2018-10-18T18:02:38.858Z,13.77
2018-10-18T18:05:07.334Z,13.60
2018-10-18T18:07:35.726Z,13.83
2018-10-18T18:10:04.403Z,13.70
2018-10-18T18:12:32.547Z,14.60
2018-10-18T18:15:00.706Z,15.27
2018-10-18T18:17:28.874Z,13.60
2018-10-18T18:19:57.007Z,13.00
2018-10-18T18:22:25.275Z,13.73
2018-10-18T18:24:53.418Z,14.20
2018-10-18T18:27:21.571Z,13.17
2018-10-18T18:29:49.702Z,15.23
2018-10-18T18:32:17.890Z,14.80
2018-10-18T18:34:46.034Z,17.53
2018-10-18T18:37:14.166Z,17.77
2018-10-18T18:39:42.426Z,17.87
2018-10-18T18:42:10.558Z,18.20
2018-10-18T18:44:38.690Z,21.77
2018-10-18T18:47:06.852Z,23.60
2018-10-18T18:49:35.014Z,22.20
2018-10-18T18:52:03.145Z,25.17
2018-10-18T18:54:31.282Z,24.90
2018-10-18T18:56:59.619Z,24.60
2018-10-18T18:59:27.772Z,24.00
2018-10-18T19:01:55.982Z,24.03
2018-10-18T19:04:24.114Z,22.43
2018-10-18T19:06:52.267Z,24.87
2018-10-18T19:09:20.399Z,24.93
2018-10-18T19:11:48.578Z,24.50
2018-10-18T19:14:16.732Z,25.50
2018-10-18T19:16:45.064Z,28.57
2018-10-18T19:19:13.218Z,25.43
2018-10-18T19:21:41.370Z,26.03
2018-10-18T19:24:09.533Z,27.47
2018-10-18T19:26:37.639Z,26.20
2018-10-18T19:29:05.794Z,26.33
2018-10-18T19:31:33.960Z,25.47
2018-10-18T19:34:02.110Z,24.30
2018-10-18T19:36:30.274Z,23.57
2018-10-18T19:38:58.442Z,22.83
2018-10-18T19:41:26.583Z,22.00
2018-10-18T19:43:54.733Z,20.50
2018-10-18T19:46:23.014Z,19.27
2018-10-18T19:48:51.281Z,19.47
2018-10-18T19:51:19.412Z,19.60
2018-10-18T19:53:47.537Z,21.07
2018-10-18T19:56:15.660Z,19.77
2018-10-18T19:58:43.820Z,20.10
2018-10-18T20:01:12.249Z,20.20
2018-10-18T20:03:40.385Z,18.70
2018-10-18T20:06:08.550Z,18.60
2018-10-18T20:08:36.690Z,17.70
2018-10-18T20:11:04.840Z,21.37
2018-10-18T20:13:32.947Z,19.00
2018-10-18T20:16:01.155Z,19.00
2018-10-18T20:18:29.467Z,19.37
2018-10-18T20:20:57.645Z,19.30
2018-10-18T20:23:25.799Z,20.70
2018-10-18T20:25:54.206Z,19.77
2018-10-18T20:28:22.304Z,21.07
2018-10-18T20:30:50.487Z,19.13
2018-10-18T20:33:18.625Z,19.90
2018-10-18T20:35:46.746Z,22.93
2018-10-18T20:38:15.047Z,21.10
2018-10-18T20:40:43.177Z,22.80
2018-10-18T20:43:11.303Z,22.70
2018-10-18T20:45:39.450Z,21.80
2018-10-18T20:48:07.834Z,22.90
2018-10-18T20:50:35.811Z,23.17
2018-10-18T20:53:03.973Z,24.10
2018-10-18T20:55:32.094Z,23.13
2018-10-18T20:58:00.271Z,23.27
2018-10-18T21:00:28.404Z,23.83
2018-10-18T21:02:56.569Z,26.47
2018-10-18T21:05:24.713Z,24.80
2018-10-18T21:07:52.831Z,26.70
2018-10-18T21:10:20.962Z,25.57
2018-10-18T21:12:49.118Z,24.23
2018-10-18T21:15:17.437Z,25.13
2018-10-18T21:17:45.432Z,22.80
2018-10-18T21:20:13.591Z,23.40
2018-10-18T21:22:41.733Z,24.60
2018-10-18T21:25:09.863Z,22.40
2018-10-18T21:27:38.056Z,21.43
2018-10-18T21:30:06.635Z,22.70
2018-10-18T21:32:34.745Z,22.20
2018-10-18T21:35:02.953Z,20.33
2018-10-18T21:37:31.006Z,22.17
2018-10-18T21:39:59.146Z,20.43
2018-10-18T21:42:27.290Z,19.17
2018-10-18T21:44:55.634Z,19.17
2018-10-18T21:47:23.822Z,18.07
2018-10-18T21:49:51.951Z,19.53
2018-10-18T21:52:20.098Z,18.57
2018-10-18T21:54:48.214Z,18.40
2018-10-18T21:57:16.355Z,19.43
2018-10-18T21:59:44.478Z,18.90
2018-10-18T22:02:12.614Z,19.57
2018-10-18T22:04:40.738Z,18.40
2018-10-18T22:07:08.890Z,17.67
2018-10-18T22:09:37.019Z,17.67
2018-10-18T22:12:05.334Z,16.37
2018-10-18T22:14:33.459Z,18.57
2018-10-18T22:17:01.644Z,17.00
2018-10-18T22:19:29.718Z,17.57
2018-10-18T22:21:57.846Z,17.90
2018-10-18T22:24:25.978Z,16.57
2018-10-18T22:26:54.135Z,17.23
2018-10-18T22:29:22.214Z,17.17
2018-10-18T22:31:50.345Z,18.70
2018-10-18T22:34:18.555Z,22.30
2018-10-18T22:36:46.694Z,20.30
2018-10-18T22:39:14.966Z,20.13
2018-10-18T22:41:42.942Z,18.90
2018-10-18T22:44:11.255Z,18.93
2018-10-18T22:46:39.375Z,17.27
2018-10-18T22:49:07.606Z,19.30
2018-10-18T22:51:35.882Z,18.93
2018-10-18T22:54:04.421Z,17.67
2018-10-18T22:56:32.559Z,20.00
2018-10-18T22:59:00.728Z,18.60
2018-10-18T23:01:28.834Z,17.77
2018-10-18T23:03:56.972Z,17.50
2018-10-18T23:06:25.100Z,18.30
2018-10-18T23:08:53.262Z,18.77
2018-10-18T23:11:21.385Z,18.33
2018-10-18T23:13:49.536Z,19.90
2018-10-18T23:16:17.694Z,18.73
2018-10-18T23:18:45.813Z,19.33
2018-10-18T23:21:13.999Z,24.33
2018-10-18T23:23:42.075Z,21.73
2018-10-18T23:26:10.199Z,19.63
2018-10-18T23:28:38.322Z,20.90
2018-10-18T23:31:06.465Z,20.77
2018-10-18T23:33:34.589Z,22.50
2018-10-18T23:36:02.713Z,21.67
2018-10-18T23:38:30.854Z,23.47
2018-10-18T23:40:59.011Z,20.17
2018-10-18T23:43:27.113Z,20.30
2018-10-18T23:45:55.234Z,22.00
2018-10-18T23:48:23.591Z,22.70
2018-10-18T23:50:52.309Z,23.27
2018-10-18T23:53:20.418Z,23.73
2018-10-18T23:55:48.537Z,20.90
2018-10-18T23:58:16.663Z,22.67
